sensor_id;sensor_type;location;lat;lon;timestamp;pressure;altitude;pressure_sealevel;temperature;humidity
47082;BME280;33066;49.296;14.470;2022-12-07T00:00:33;96716.82;;;8.90;38.72
47082;BME280;33066;49.296;14.470;2022-12-07T00:03:00;96718.28;;;9.00;38.73
47082;BME280;33066;49.296;14.470;2022-12-07T00:05:24;96713.54;;;8.91;38.72
47082;BME280;33066;49.296;14.470;2022-12-07T00:07:49;96713.03;;;8.96;38.95
47082;BME280;33066;49.296;14.470;2022-12-07T00:10:15;96711.26;;;9.05;39.09
47082;BME280;33066;49.296;14.470;2022-12-07T00:12:40;96707.79;;;8.99;38.92
47082;BME280;33066;49.296;14.470;2022-12-07T00:15:06;96705.59;;;8.70;38.83
47082;BME280;33066;49.296;14.470;2022-12-07T00:17:31;96706.26;;;8.73;38.75
47082;BME280;33066;49.296;14.470;2022-12-07T00:19:56;96704.14;;;8.60;39.03
47082;BME280;33066;49.296;14.470;2022-12-07T00:22:22;96705.61;;;8.83;38.98
47082;BME280;33066;49.296;14.470;2022-12-07T00:24:47;96707.89;;;8.77;39.24
47082;BME280;33066;49.296;14.470;2022-12-07T00:27:12;96704.81;;;8.82;39.19
47082;BME280;33066;49.296;14.470;2022-12-07T00:29:39;96702.81;;;8.65;38.82
47082;BME280;33066;49.296;14.470;2022-12-07T00:32:03;96701.61;;;8.97;38.80
47082;BME280;33066;49.296;14.470;2022-12-07T00:34:29;96696.54;;;9.10;38.89
47082;BME280;33066;49.296;14.470;2022-12-07T00:36:54;96695.64;;;9.10;38.71
47082;BME280;33066;49.296;14.470;2022-12-07T00:39:19;96691.64;;;8.97;38.72
47082;BME280;33066;49.296;14.470;2022-12-07T00:41:45;96686.59;;;9.32;38.59
47082;BME280;33066;49.296;14.470;2022-12-07T00:44:12;96689.80;;;9.22;38.34
47082;BME280;33066;49.296;14.470;2022-12-07T00:46:35;96692.53;;;8.99;38.32
47082;BME280;33066;49.296;14.470;2022-12-07T00:49:01;96693.62;;;9.12;38.45
47082;BME280;33066;49.296;14.470;2022-12-07T00:51:26;96696.81;;;8.84;38.57
47082;BME280;33066;49.296;14.470;2022-12-07T00:53:52;96697.37;;;9.13;38.69
47082;BME280;33066;49.296;14.470;2022-12-07T00:56:18;96697.00;;;8.87;38.73
47082;BME280;33066;49.296;14.470;2022-12-07T00:58:42;96695.63;;;8.86;38.61
47082;BME280;33066;49.296;14.470;2022-12-07T01:01:09;96693.13;;;9.10;38.57
47082;BME280;33066;49.296;14.470;2022-12-07T01:03:34;96697.81;;;9.05;38.58
47082;BME280;33066;49.296;14.470;2022-12-07T01:05:59;96698.72;;;8.63;38.57
47082;BME280;33066;49.296;14.470;2022-12-07T01:08:25;96699.83;;;9.05;38.49
47082;BME280;33066;49.296;14.470;2022-12-07T01:10:57;96699.10;;;8.60;38.61
47082;BME280;33066;49.296;14.470;2022-12-07T01:13:15;96702.39;;;8.84;38.71
47082;BME280;33066;49.296;14.470;2022-12-07T01:15:40;96702.04;;;8.43;38.66
47082;BME280;33066;49.296;14.470;2022-12-07T01:18:06;96706.33;;;8.71;38.72
47082;BME280;33066;49.296;14.470;2022-12-07T01:20:31;96703.39;;;8.86;38.67
47082;BME280;33066;49.296;14.470;2022-12-07T01:22:56;96703.90;;;8.83;38.85
47082;BME280;33066;49.296;14.470;2022-12-07T01:25:22;96703.98;;;8.80;38.75
47082;BME280;33066;49.296;14.470;2022-12-07T01:27:47;96701.55;;;8.82;38.72
47082;BME280;33066;49.296;14.470;2022-12-07T01:30:14;96697.70;;;8.60;38.99
47082;BME280;33066;49.296;14.470;2022-12-07T01:32:38;96696.12;;;8.79;38.82
47082;BME280;33066;49.296;14.470;2022-12-07T01:35:04;96699.23;;;8.54;38.78
47082;BME280;33066;49.296;14.470;2022-12-07T01:37:35;96697.64;;;8.50;38.90
47082;BME280;33066;49.296;14.470;2022-12-07T01:39:55;96696.59;;;8.60;38.98
47082;BME280;33066;49.296;14.470;2022-12-07T01:42:20;96691.92;;;8.62;38.83
47082;BME280;33066;49.296;14.470;2022-12-07T01:47:10;96687.76;;;8.58;38.89
47082;BME280;33066;49.296;14.470;2022-12-07T01:49:37;96686.76;;;8.90;38.91
47082;BME280;33066;49.296;14.470;2022-12-07T01:52:08;96687.89;;;8.73;38.81
47082;BME280;33066;49.296;14.470;2022-12-07T01:54:27;96688.60;;;8.93;38.70
47082;BME280;33066;49.296;14.470;2022-12-07T01:56:54;96691.49;;;8.98;38.50
47082;BME280;33066;49.296;14.470;2022-12-07T01:59:19;96691.89;;;8.95;38.49
47082;BME280;33066;49.296;14.470;2022-12-07T02:01:43;96689.83;;;8.95;38.57
47082;BME280;33066;49.296;14.470;2022-12-07T02:04:09;96690.43;;;8.54;38.63
47082;BME280;33066;49.296;14.470;2022-12-07T02:06:35;96690.40;;;8.82;38.62
47082;BME280;33066;49.296;14.470;2022-12-07T02:08:59;96688.10;;;8.71;38.87
47082;BME280;33066;49.296;14.470;2022-12-07T02:11:25;96688.67;;;8.79;38.84
47082;BME280;33066;49.296;14.470;2022-12-07T02:13:51;96691.03;;;8.72;38.61
47082;BME280;33066;49.296;14.470;2022-12-07T02:16:25;96693.65;;;8.79;38.61
47082;BME280;33066;49.296;14.470;2022-12-07T02:18:54;96689.67;;;8.73;38.51
47082;BME280;33066;49.296;14.470;2022-12-07T02:21:12;96688.67;;;8.78;38.62
47082;BME280;33066;49.296;14.470;2022-12-07T02:23:44;96691.57;;;8.67;38.74
47082;BME280;33066;49.296;14.470;2022-12-07T02:28:28;96690.62;;;8.27;38.90
47082;BME280;33066;49.296;14.470;2022-12-07T02:30:48;96692.39;;;8.67;39.06
47082;BME280;33066;49.296;14.470;2022-12-07T02:33:15;96690.28;;;8.21;39.09
47082;BME280;33066;49.296;14.470;2022-12-07T02:35:42;96687.05;;;8.31;39.32
47082;BME280;33066;49.296;14.470;2022-12-07T02:38:10;96686.88;;;8.33;38.98
47082;BME280;33066;49.296;14.470;2022-12-07T02:40:33;96684.62;;;8.37;38.90
47082;BME280;33066;49.296;14.470;2022-12-07T02:42:58;96681.84;;;8.33;39.02
47082;BME280;33066;49.296;14.470;2022-12-07T02:45:25;96683.51;;;8.50;38.87
47082;BME280;33066;49.296;14.470;2022-12-07T02:47:47;96687.06;;;8.74;38.74
47082;BME280;33066;49.296;14.470;2022-12-07T02:50:13;96678.68;;;8.06;38.79
47082;BME280;33066;49.296;14.470;2022-12-07T02:52:37;96679.76;;;8.06;39.15
47082;BME280;33066;49.296;14.470;2022-12-07T02:55:04;96676.63;;;8.16;39.07
47082;BME280;33066;49.296;14.470;2022-12-07T02:57:45;96677.01;;;8.30;38.87
47082;BME280;33066;49.296;14.470;2022-12-07T03:00:03;96676.16;;;8.78;38.71
47082;BME280;33066;49.296;14.470;2022-12-07T03:02:26;96676.16;;;8.53;38.74
47082;BME280;33066;49.296;14.470;2022-12-07T03:04:52;96677.08;;;8.54;38.81
47082;BME280;33066;49.296;14.470;2022-12-07T03:07:15;96671.73;;;8.27;38.67
47082;BME280;33066;49.296;14.470;2022-12-07T03:09:41;96674.11;;;8.34;38.83
47082;BME280;33066;49.296;14.470;2022-12-07T03:12:08;96669.28;;;7.87;38.99
47082;BME280;33066;49.296;14.470;2022-12-07T03:14:31;96666.44;;;8.41;39.21
47082;BME280;33066;49.296;14.470;2022-12-07T03:16:59;96668.56;;;8.17;39.04
47082;BME280;33066;49.296;14.470;2022-12-07T03:19:21;96673.86;;;8.29;39.11
47082;BME280;33066;49.296;14.470;2022-12-07T03:21:47;96677.75;;;7.97;39.27
47082;BME280;33066;49.296;14.470;2022-12-07T03:24:12;96679.87;;;8.26;39.46
47082;BME280;33066;49.296;14.470;2022-12-07T03:26:36;96678.26;;;8.33;39.28
47082;BME280;33066;49.296;14.470;2022-12-07T03:29:04;96672.11;;;7.99;39.10
47082;BME280;33066;49.296;14.470;2022-12-07T03:31:28;96669.92;;;8.04;38.93
47082;BME280;33066;49.296;14.470;2022-12-07T03:33:59;96668.27;;;8.50;38.84
47082;BME280;33066;49.296;14.470;2022-12-07T03:36:22;96662.28;;;8.41;38.87
47082;BME280;33066;49.296;14.470;2022-12-07T03:38:44;96661.59;;;8.32;38.60
47082;BME280;33066;49.296;14.470;2022-12-07T03:41:08;96654.61;;;8.85;38.53
47082;BME280;33066;49.296;14.470;2022-12-07T03:43:32;96654.08;;;8.40;38.52
47082;BME280;33066;49.296;14.470;2022-12-07T03:46:03;96653.62;;;8.32;38.52
47082;BME280;33066;49.296;14.470;2022-12-07T03:48:28;96651.79;;;8.33;38.36
47082;BME280;33066;49.296;14.470;2022-12-07T03:50:53;96649.14;;;8.34;38.20
47082;BME280;33066;49.296;14.470;2022-12-07T03:53:17;96646.86;;;8.63;38.39
47082;BME280;33066;49.296;14.470;2022-12-07T03:55:44;96646.01;;;8.54;38.15
47082;BME280;33066;49.296;14.470;2022-12-07T03:58:07;96644.00;;;8.63;38.19
47082;BME280;33066;49.296;14.470;2022-12-07T04:00:31;96640.18;;;8.67;38.01
47082;BME280;33066;49.296;14.470;2022-12-07T04:02:56;96637.83;;;8.38;38.06
47082;BME280;33066;49.296;14.470;2022-12-07T04:05:21;96637.19;;;8.43;38.28
47082;BME280;33066;49.296;14.470;2022-12-07T04:07:46;96638.04;;;8.68;38.07
47082;BME280;33066;49.296;14.470;2022-12-07T04:13:00;96631.04;;;9.32;37.61
47082;BME280;33066;49.296;14.470;2022-12-07T04:15:25;96629.75;;;8.73;37.54
47082;BME280;33066;49.296;14.470;2022-12-07T04:17:50;96631.80;;;8.82;37.85
47082;BME280;33066;49.296;14.470;2022-12-07T04:20:16;96631.76;;;8.82;37.84
47082;BME280;33066;49.296;14.470;2022-12-07T04:22:41;96630.64;;;9.08;37.93
47082;BME280;33066;49.296;14.470;2022-12-07T04:25:07;96627.61;;;8.90;37.64
47082;BME280;33066;49.296;14.470;2022-12-07T04:27:32;96626.22;;;9.19;37.42
47082;BME280;33066;49.296;14.470;2022-12-07T04:29:57;96627.60;;;9.21;37.60
47082;BME280;33066;49.296;14.470;2022-12-07T04:32:22;96626.18;;;8.93;37.56
47082;BME280;33066;49.296;14.470;2022-12-07T04:34:48;96627.10;;;9.11;37.46
47082;BME280;33066;49.296;14.470;2022-12-07T04:37:12;96626.39;;;9.11;37.50
47082;BME280;33066;49.296;14.470;2022-12-07T04:39:38;96623.20;;;8.88;37.69
47082;BME280;33066;49.296;14.470;2022-12-07T04:42:03;96620.01;;;8.96;37.68
47082;BME280;33066;49.296;14.470;2022-12-07T04:44:29;96618.61;;;9.19;37.60
47082;BME280;33066;49.296;14.470;2022-12-07T04:46:53;96617.33;;;9.20;37.58
47082;BME280;33066;49.296;14.470;2022-12-07T04:49:19;96617.61;;;8.97;37.36
47082;BME280;33066;49.296;14.470;2022-12-07T04:51:44;96616.20;;;9.21;37.20
47082;BME280;33066;49.296;14.470;2022-12-07T04:54:12;96612.32;;;8.97;37.23
47082;BME280;33066;49.296;14.470;2022-12-07T04:56:35;96609.45;;;8.99;37.29
47082;BME280;33066;49.296;14.470;2022-12-07T04:59:01;96608.12;;;8.96;37.24
47082;BME280;33066;49.296;14.470;2022-12-07T05:01:26;96606.26;;;8.98;37.08
47082;BME280;33066;49.296;14.470;2022-12-07T05:03:52;96602.22;;;8.89;36.99
47082;BME280;33066;49.296;14.470;2022-12-07T05:06:17;96602.41;;;8.84;37.07
47082;BME280;33066;49.296;14.470;2022-12-07T05:08:42;96601.61;;;8.75;37.27
47082;BME280;33066;49.296;14.470;2022-12-07T05:11:08;96606.12;;;8.72;37.39
47082;BME280;33066;49.296;14.470;2022-12-07T05:13:33;96610.79;;;8.88;37.50
47082;BME280;33066;49.296;14.470;2022-12-07T05:15:58;96614.98;;;8.65;37.47
47082;BME280;33066;49.296;14.470;2022-12-07T05:18:24;96618.93;;;8.65;37.41
47082;BME280;33066;49.296;14.470;2022-12-07T05:20:49;96617.91;;;8.65;37.39
47082;BME280;33066;49.296;14.470;2022-12-07T05:23:14;96617.70;;;8.73;37.44
47082;BME280;33066;49.296;14.470;2022-12-07T05:25:41;96620.11;;;8.81;37.49
47082;BME280;33066;49.296;14.470;2022-12-07T05:28:05;96619.23;;;8.76;37.30
47082;BME280;33066;49.296;14.470;2022-12-07T05:30:30;96622.92;;;8.84;37.23
47082;BME280;33066;49.296;14.470;2022-12-07T05:32:55;96621.54;;;9.13;37.34
47082;BME280;33066;49.296;14.470;2022-12-07T05:35:21;96622.55;;;8.89;37.38
47082;BME280;33066;49.296;14.470;2022-12-07T05:37:46;96620.56;;;8.82;37.35
47082;BME280;33066;49.296;14.470;2022-12-07T05:40:12;96617.96;;;8.77;37.30
47082;BME280;33066;49.296;14.470;2022-12-07T05:42:38;96623.40;;;8.92;37.06
47082;BME280;33066;49.296;14.470;2022-12-07T05:45:03;96624.58;;;8.61;37.39
47082;BME280;33066;49.296;14.470;2022-12-07T05:47:28;96626.39;;;8.55;37.49
47082;BME280;33066;49.296;14.470;2022-12-07T05:49:53;96625.47;;;8.66;37.42
47082;BME280;33066;49.296;14.470;2022-12-07T05:52:18;96627.11;;;8.57;37.49
47082;BME280;33066;49.296;14.470;2022-12-07T05:54:44;96627.59;;;8.46;37.82
47082;BME280;33066;49.296;14.470;2022-12-07T05:57:09;96623.77;;;8.56;37.91
47082;BME280;33066;49.296;14.470;2022-12-07T05:59:34;96625.11;;;8.55;37.85
47082;BME280;33066;49.296;14.470;2022-12-07T06:02:02;96629.86;;;8.44;37.54
47082;BME280;33066;49.296;14.470;2022-12-07T06:04:26;96624.30;;;8.92;37.48
47082;BME280;33066;49.296;14.470;2022-12-07T06:06:51;96625.42;;;8.33;37.56
47082;BME280;33066;49.296;14.470;2022-12-07T06:09:15;96628.13;;;8.25;37.74
47082;BME280;33066;49.296;14.470;2022-12-07T06:11:41;96631.75;;;8.20;37.60
47082;BME280;33066;49.296;14.470;2022-12-07T06:14:07;96634.08;;;8.51;37.75
47082;BME280;33066;49.296;14.470;2022-12-07T06:16:33;96633.05;;;8.33;37.60
47082;BME280;33066;49.296;14.470;2022-12-07T06:18:57;96637.03;;;8.23;37.16
47082;BME280;33066;49.296;14.470;2022-12-07T06:21:23;96633.27;;;8.59;36.89
47082;BME280;33066;49.296;14.470;2022-12-07T06:23:48;96637.70;;;8.65;37.04
47082;BME280;33066;49.296;14.470;2022-12-07T06:26:14;96637.37;;;8.44;37.14
47082;BME280;33066;49.296;14.470;2022-12-07T06:28:40;96636.43;;;8.40;37.15
47082;BME280;33066;49.296;14.470;2022-12-07T06:31:05;96633.30;;;8.33;37.10
47082;BME280;33066;49.296;14.470;2022-12-07T06:33:30;96634.52;;;8.19;37.27
47082;BME280;33066;49.296;14.470;2022-12-07T06:35:56;96638.89;;;8.02;37.48
47082;BME280;33066;49.296;14.470;2022-12-07T06:38:21;96640.93;;;8.12;37.45
47082;BME280;33066;49.296;14.470;2022-12-07T06:40:47;96641.44;;;8.40;37.41
47082;BME280;33066;49.296;14.470;2022-12-07T06:43:12;96643.47;;;8.46;37.53
47082;BME280;33066;49.296;14.470;2022-12-07T06:45:37;96642.31;;;8.11;37.69
47082;BME280;33066;49.296;14.470;2022-12-07T06:48:03;96642.90;;;8.16;37.63
47082;BME280;33066;49.296;14.470;2022-12-07T06:50:30;96644.17;;;8.24;37.41
47082;BME280;33066;49.296;14.470;2022-12-07T06:52:54;96644.53;;;8.50;37.53
47082;BME280;33066;49.296;14.470;2022-12-07T06:55:19;96644.76;;;8.82;37.31
47082;BME280;33066;49.296;14.470;2022-12-07T06:57:45;96643.62;;;8.59;37.40
47082;BME280;33066;49.296;14.470;2022-12-07T07:00:11;96644.30;;;8.41;37.30
47082;BME280;33066;49.296;14.470;2022-12-07T07:02:35;96647.33;;;8.47;37.13
47082;BME280;33066;49.296;14.470;2022-12-07T07:05:01;96646.50;;;8.52;37.15
47082;BME280;33066;49.296;14.470;2022-12-07T07:07:27;96649.61;;;8.41;37.31
47082;BME280;33066;49.296;14.470;2022-12-07T07:09:52;96650.49;;;8.36;37.21
47082;BME280;33066;49.296;14.470;2022-12-07T07:12:18;96650.81;;;8.39;37.27
47082;BME280;33066;49.296;14.470;2022-12-07T07:14:43;96655.99;;;8.28;37.27
47082;BME280;33066;49.296;14.470;2022-12-07T07:17:08;96655.05;;;8.26;37.35
47082;BME280;33066;49.296;14.470;2022-12-07T07:19:34;96657.81;;;8.26;37.29
47082;BME280;33066;49.296;14.470;2022-12-07T07:22:00;96656.54;;;8.23;37.39
47082;BME280;33066;49.296;14.470;2022-12-07T07:24:27;96652.46;;;8.31;37.42
47082;BME280;33066;49.296;14.470;2022-12-07T07:26:51;96653.27;;;8.33;37.53
47082;BME280;33066;49.296;14.470;2022-12-07T07:29:17;96655.69;;;8.32;37.32
47082;BME280;33066;49.296;14.470;2022-12-07T07:31:42;96657.36;;;8.30;37.22
47082;BME280;33066;49.296;14.470;2022-12-07T07:34:08;96656.30;;;8.73;37.24
47082;BME280;33066;49.296;14.470;2022-12-07T07:36:33;96654.03;;;8.32;37.17
47082;BME280;33066;49.296;14.470;2022-12-07T07:38:59;96656.71;;;8.34;36.94
47082;BME280;33066;49.296;14.470;2022-12-07T07:41:24;96657.81;;;8.40;36.97
47082;BME280;33066;49.296;14.470;2022-12-07T07:43:50;96656.88;;;8.45;36.83
47082;BME280;33066;49.296;14.470;2022-12-07T07:46:16;96655.50;;;8.46;36.78
47082;BME280;33066;49.296;14.470;2022-12-07T07:48:41;96656.23;;;8.56;37.06
47082;BME280;33066;49.296;14.470;2022-12-07T07:51:08;96655.56;;;8.64;36.73
47082;BME280;33066;49.296;14.470;2022-12-07T07:53:32;96654.31;;;8.54;36.53
47082;BME280;33066;49.296;14.470;2022-12-07T07:55:57;96655.65;;;8.63;36.57
47082;BME280;33066;49.296;14.470;2022-12-07T07:58:23;96660.60;;;8.68;36.49
47082;BME280;33066;49.296;14.470;2022-12-07T08:00:48;96662.94;;;8.99;36.26
47082;BME280;33066;49.296;14.470;2022-12-07T08:03:14;96666.00;;;9.09;36.16
47082;BME280;33066;49.296;14.470;2022-12-07T08:05:39;96668.58;;;8.94;36.13
47082;BME280;33066;49.296;14.470;2022-12-07T08:08:05;96668.96;;;9.27;35.92
47082;BME280;33066;49.296;14.470;2022-12-07T08:10:30;96663.45;;;9.32;35.71
47082;BME280;33066;49.296;14.470;2022-12-07T08:12:55;96667.61;;;9.05;35.85
47082;BME280;33066;49.296;14.470;2022-12-07T08:15:20;96668.19;;;9.18;35.69
47082;BME280;33066;49.296;14.470;2022-12-07T08:17:46;96673.77;;;9.13;35.64
47082;BME280;33066;49.296;14.470;2022-12-07T08:20:11;96676.81;;;9.09;35.82
47082;BME280;33066;49.296;14.470;2022-12-07T08:22:36;96682.23;;;9.30;35.88
47082;BME280;33066;49.296;14.470;2022-12-07T08:25:02;96686.40;;;9.06;35.85
47082;BME280;33066;49.296;14.470;2022-12-07T08:27:27;96684.73;;;9.31;36.05
47082;BME280;33066;49.296;14.470;2022-12-07T08:29:53;96686.75;;;9.31;35.91
47082;BME280;33066;49.296;14.470;2022-12-07T08:32:18;96686.34;;;9.33;36.12
47082;BME280;33066;49.296;14.470;2022-12-07T08:34:44;96687.76;;;9.23;35.66
47082;BME280;33066;49.296;14.470;2022-12-07T08:37:09;96683.76;;;9.13;35.63
47082;BME280;33066;49.296;14.470;2022-12-07T08:39:34;96682.45;;;9.49;35.34
47082;BME280;33066;49.296;14.470;2022-12-07T08:42:01;96682.60;;;9.80;34.78
47082;BME280;33066;49.296;14.470;2022-12-07T08:44:25;96680.50;;;9.64;35.10
47082;BME280;33066;49.296;14.470;2022-12-07T08:46:55;96677.83;;;9.41;35.33
47082;BME280;33066;49.296;14.470;2022-12-07T08:49:17;96682.18;;;9.46;35.72
47082;BME280;33066;49.296;14.470;2022-12-07T08:51:41;96686.63;;;9.42;35.99
47082;BME280;33066;49.296;14.470;2022-12-07T08:54:09;96690.78;;;9.52;35.74
47082;BME280;33066;49.296;14.470;2022-12-07T08:56:32;96695.34;;;9.51;34.76
47082;BME280;33066;49.296;14.470;2022-12-07T08:58:58;96697.36;;;9.58;34.63
47082;BME280;33066;49.296;14.470;2022-12-07T09:01:22;96695.99;;;9.85;34.41
47082;BME280;33066;49.296;14.470;2022-12-07T09:03:48;96694.68;;;9.66;34.71
47082;BME280;33066;49.296;14.470;2022-12-07T09:06:13;96693.66;;;9.74;35.40
47082;BME280;33066;49.296;14.470;2022-12-07T09:08:40;96691.67;;;9.71;34.35
47082;BME280;33066;49.296;14.470;2022-12-07T09:11:04;96689.04;;;9.68;34.00
47082;BME280;33066;49.296;14.470;2022-12-07T09:13:29;96683.33;;;9.82;34.04
47082;BME280;33066;49.296;14.470;2022-12-07T09:15:54;96680.85;;;9.90;34.35
47082;BME280;33066;49.296;14.470;2022-12-07T09:18:19;96683.50;;;10.19;33.79
47082;BME280;33066;49.296;14.470;2022-12-07T09:20:45;96683.36;;;10.10;32.94
47082;BME280;33066;49.296;14.470;2022-12-07T09:23:10;96681.56;;;9.84;32.98
47082;BME280;33066;49.296;14.470;2022-12-07T09:25:36;96676.89;;;9.68;33.28
47082;BME280;33066;49.296;14.470;2022-12-07T09:28:01;96682.14;;;9.54;33.38
47082;BME280;33066;49.296;14.470;2022-12-07T09:30:28;96677.99;;;9.79;33.46
47082;BME280;33066;49.296;14.470;2022-12-07T09:32:55;96674.26;;;9.64;33.52
47082;BME280;33066;49.296;14.470;2022-12-07T09:35:17;96671.25;;;9.55;33.67
47082;BME280;33066;49.296;14.470;2022-12-07T09:37:43;96669.30;;;9.80;33.20
47082;BME280;33066;49.296;14.470;2022-12-07T09:40:09;96664.16;;;9.87;33.14
47082;BME280;33066;49.296;14.470;2022-12-07T09:42:35;96668.51;;;9.78;32.60
47082;BME280;33066;49.296;14.470;2022-12-07T09:45:00;96657.82;;;10.06;32.28
47082;BME280;33066;49.296;14.470;2022-12-07T09:47:24;96655.58;;;9.71;32.17
47082;BME280;33066;49.296;14.470;2022-12-07T09:49:51;96651.21;;;9.79;32.21
47082;BME280;33066;49.296;14.470;2022-12-07T09:52:20;96651.66;;;9.76;32.06
47082;BME280;33066;49.296;14.470;2022-12-07T09:54:45;96646.46;;;9.73;32.38
47082;BME280;33066;49.296;14.470;2022-12-07T09:57:07;96647.24;;;10.01;32.05
47082;BME280;33066;49.296;14.470;2022-12-07T09:59:31;96641.53;;;9.34;32.18
47082;BME280;33066;49.296;14.470;2022-12-07T10:04:24;96637.56;;;9.47;32.37
47082;BME280;33066;49.296;14.470;2022-12-07T10:06:48;96636.74;;;9.56;32.00
47082;BME280;33066;49.296;14.470;2022-12-07T10:09:16;96637.33;;;9.67;32.19
47082;BME280;33066;49.296;14.470;2022-12-07T10:14:10;96632.91;;;9.61;32.18
47082;BME280;33066;49.296;14.470;2022-12-07T10:16:37;96633.28;;;9.77;31.74
47082;BME280;33066;49.296;14.470;2022-12-07T10:18:55;96634.49;;;9.78;32.06
47082;BME280;33066;49.296;14.470;2022-12-07T10:21:22;96630.62;;;9.60;32.08
47082;BME280;33066;49.296;14.470;2022-12-07T10:24:00;96631.19;;;9.87;31.92
47082;BME280;33066;49.296;14.470;2022-12-07T10:26:27;96627.42;;;9.69;31.88
47082;BME280;33066;49.296;14.470;2022-12-07T10:28:37;96629.19;;;9.94;31.72
47082;BME280;33066;49.296;14.470;2022-12-07T10:33:31;96629.84;;;9.51;31.89
47082;BME280;33066;49.296;14.470;2022-12-07T10:35:54;96624.67;;;9.61;31.94
47082;BME280;33066;49.296;14.470;2022-12-07T10:38:18;96621.25;;;9.28;32.32
47082;BME280;33066;49.296;14.470;2022-12-07T10:40:43;96625.07;;;9.68;32.42
47082;BME280;33066;49.296;14.470;2022-12-07T10:43:17;96625.86;;;9.49;32.34
47082;BME280;33066;49.296;14.470;2022-12-07T10:45:42;96631.34;;;9.68;32.12
47082;BME280;33066;49.296;14.470;2022-12-07T10:48:05;96624.55;;;9.84;31.72
47082;BME280;33066;49.296;14.470;2022-12-07T10:50:45;96618.78;;;9.85;32.13
47082;BME280;33066;49.296;14.470;2022-12-07T10:55:22;96619.74;;;10.32;31.60
47082;BME280;33066;49.296;14.470;2022-12-07T10:57:53;96617.05;;;10.84;31.18
47082;BME280;33066;49.296;14.470;2022-12-07T11:00:15;96610.56;;;10.81;31.63
47082;BME280;33066;49.296;14.470;2022-12-07T11:02:48;96610.37;;;11.22;31.34
47082;BME280;33066;49.296;14.470;2022-12-07T11:05:09;96620.25;;;10.77;31.46
47082;BME280;33066;49.296;14.470;2022-12-07T11:07:31;96610.04;;;10.11;31.11
47082;BME280;33066;49.296;14.470;2022-12-07T11:09:59;96614.25;;;9.49;32.02
47082;BME280;33066;49.296;14.470;2022-12-07T11:12:21;96615.04;;;9.56;32.87
47082;BME280;33066;49.296;14.470;2022-12-07T11:14:47;96612.47;;;9.36;33.49
47082;BME280;33066;49.296;14.470;2022-12-07T11:17:09;96606.51;;;9.59;33.06
47082;BME280;33066;49.296;14.470;2022-12-07T11:21:57;96605.25;;;9.06;33.09
47082;BME280;33066;49.296;14.470;2022-12-07T11:24:29;96603.36;;;9.02;33.06
47082;BME280;33066;49.296;14.470;2022-12-07T11:26:59;96607.54;;;9.18;33.25
47082;BME280;33066;49.296;14.470;2022-12-07T11:29:28;96612.01;;;9.14;33.43
47082;BME280;33066;49.296;14.470;2022-12-07T11:31:58;96611.69;;;9.18;33.29
47082;BME280;33066;49.296;14.470;2022-12-07T11:34:10;96610.95;;;9.14;33.07
47082;BME280;33066;49.296;14.470;2022-12-07T11:36:37;96611.67;;;9.10;33.16
47082;BME280;33066;49.296;14.470;2022-12-07T11:38:57;96604.90;;;9.21;33.40
47082;BME280;33066;49.296;14.470;2022-12-07T11:41:26;96609.64;;;8.88;33.41
47082;BME280;33066;49.296;14.470;2022-12-07T11:43:53;96610.17;;;9.11;33.35
47082;BME280;33066;49.296;14.470;2022-12-07T11:46:14;96608.44;;;9.08;33.42
47082;BME280;33066;49.296;14.470;2022-12-07T11:48:40;96605.10;;;9.11;33.34
47082;BME280;33066;49.296;14.470;2022-12-07T11:51:02;96604.13;;;8.84;33.28
47082;BME280;33066;49.296;14.470;2022-12-07T11:53:31;96603.79;;;8.88;33.49
47082;BME280;33066;49.296;14.470;2022-12-07T11:55:57;96605.13;;;9.06;33.52
47082;BME280;33066;49.296;14.470;2022-12-07T12:00:44;96599.81;;;9.07;33.73
47082;BME280;33066;49.296;14.470;2022-12-07T12:03:15;96603.42;;;8.90;33.85
47082;BME280;33066;49.296;14.470;2022-12-07T12:05:35;96601.46;;;8.76;33.77
47082;BME280;33066;49.296;14.470;2022-12-07T12:08:12;96591.82;;;8.73;33.77
47082;BME280;33066;49.296;14.470;2022-12-07T12:10:35;96596.83;;;8.82;33.99
47082;BME280;33066;49.296;14.470;2022-12-07T12:13:08;96592.94;;;8.95;34.11
47082;BME280;33066;49.296;14.470;2022-12-07T12:15:30;96597.42;;;9.05;33.94
47082;BME280;33066;49.296;14.470;2022-12-07T12:20:16;96601.10;;;9.06;33.71
47082;BME280;33066;49.296;14.470;2022-12-07T12:22:39;96606.49;;;9.23;33.71
47082;BME280;33066;49.296;14.470;2022-12-07T12:24:59;96598.42;;;9.11;34.04
47082;BME280;33066;49.296;14.470;2022-12-07T12:27:28;96599.66;;;8.91;34.67
47082;BME280;33066;49.296;14.470;2022-12-07T12:29:54;96608.57;;;8.97;34.22
47082;BME280;33066;49.296;14.470;2022-12-07T12:32:19;96601.47;;;8.82;34.30
47082;BME280;33066;49.296;14.470;2022-12-07T12:39:33;96600.27;;;9.21;34.64
47082;BME280;33066;49.296;14.470;2022-12-07T12:41:59;96598.52;;;8.95;34.50
47082;BME280;33066;49.296;14.470;2022-12-07T12:46:52;96601.01;;;9.22;34.53
47082;BME280;33066;49.296;14.470;2022-12-07T12:49:32;96600.76;;;9.30;35.12
47082;BME280;33066;49.296;14.470;2022-12-07T12:51:41;96602.53;;;9.17;34.56
47082;BME280;33066;49.296;14.470;2022-12-07T12:54:11;96602.01;;;9.10;34.33
47082;BME280;33066;49.296;14.470;2022-12-07T12:56:39;96606.07;;;9.17;34.86
47082;BME280;33066;49.296;14.470;2022-12-07T13:01:42;96601.60;;;9.04;34.78
47082;BME280;33066;49.296;14.470;2022-12-07T13:03:52;96600.95;;;9.21;34.96
47082;BME280;33066;49.296;14.470;2022-12-07T13:06:19;96603.17;;;9.19;34.76
47082;BME280;33066;49.296;14.470;2022-12-07T13:08:41;96599.34;;;9.15;34.88
47082;BME280;33066;49.296;14.470;2022-12-07T13:11:16;96594.54;;;9.39;34.87
47082;BME280;33066;49.296;14.470;2022-12-07T13:13:32;96594.84;;;9.11;34.85
47082;BME280;33066;49.296;14.470;2022-12-07T13:15:55;96594.81;;;9.24;34.94
47082;BME280;33066;49.296;14.470;2022-12-07T13:18:24;96589.57;;;9.31;34.77
47082;BME280;33066;49.296;14.470;2022-12-07T13:20:48;96589.93;;;9.07;34.70
47082;BME280;33066;49.296;14.470;2022-12-07T13:23:12;96590.79;;;9.09;34.79